createdAt,value
2019-03-01T00:05:47.662Z,2.80
2019-03-01T00:13:01.820Z,2.80
2019-03-01T00:20:25.789Z,2.17
2019-03-01T00:27:51.772Z,2.27
2019-03-01T00:34:52.566Z,2.40
2019-03-01T00:42:05.110Z,2.90
2019-03-01T00:48:20.709Z,3.23
2019-03-01T00:54:46.563Z,2.33
2019-03-01T01:01:25.517Z,3.03
2019-03-01T01:07:55.578Z,2.40
2019-03-01T01:14:22.402Z,2.90
2019-03-01T01:21:01.355Z,3.40
2019-03-01T01:27:28.991Z,2.80
2019-03-01T01:33:58.522Z,3.30
2019-03-01T01:40:26.830Z,3.30
2019-03-01T01:46:58.413Z,3.10
2019-03-01T01:53:26.620Z,3.00
2019-03-01T01:59:54.220Z,3.50
2019-03-01T02:06:40.474Z,4.10
2019-03-01T02:13:08.311Z,4.10
2019-03-01T02:19:35.934Z,3.17
2019-03-01T02:26:14.888Z,3.50
2019-03-01T02:32:50.075Z,3.67
2019-03-01T02:39:20.884Z,3.80
2019-03-01T02:45:11.136Z,3.77
2019-03-01T02:51:37.803Z,3.33
2019-03-01T02:58:16.761Z,3.47
2019-03-01T03:04:42.951Z,3.30
2019-03-01T03:11:08.776Z,2.57
2019-03-01T03:17:46.608Z,3.23
2019-03-01T03:24:13.546Z,2.90
2019-03-01T03:30:41.166Z,2.40
2019-03-01T03:37:11.928Z,2.70
2019-03-01T03:43:53.224Z,3.17
2019-03-01T03:50:10.981Z,3.23
2019-03-01T03:56:38.496Z,3.40
2019-03-01T04:03:15.733Z,4.37
2019-03-01T04:09:44.583Z,3.20
2019-03-01T04:16:09.158Z,3.20
2019-03-01T04:22:48.111Z,3.70
2019-03-01T04:29:13.955Z,3.93
2019-03-01T04:35:40.995Z,3.43
2019-03-01T04:42:06.811Z,4.13
2019-03-01T04:51:41.502Z,3.93
2019-03-01T04:58:22.155Z,4.00
2019-03-01T05:04:51.322Z,4.40
2019-03-01T05:11:15.904Z,4.20
2019-03-01T05:17:41.758Z,1.97
2019-03-01T05:24:18.661Z,1.30
2019-03-01T05:30:42.473Z,4.73
2019-03-01T05:37:09.134Z,1.43
2019-03-01T05:43:48.463Z,1.30
2019-03-01T05:53:55.953Z,1.40
2019-03-01T06:00:23.312Z,1.30
2019-03-01T06:08:17.005Z,1.20
2019-03-01T06:15:43.010Z,1.10
2019-03-01T06:23:05.380Z,1.30
2019-03-01T06:30:30.691Z,1.60
2019-03-01T06:37:43.492Z,1.60
2019-03-01T06:44:57.799Z,1.30
2019-03-01T06:55:14.900Z,1.00
2019-03-01T07:05:26.578Z,1.17
2019-03-01T07:11:52.784Z,1.47
2019-03-01T07:18:29.714Z,0.97
2019-03-01T07:24:55.534Z,1.00
2019-03-01T07:31:23.373Z,1.20
2019-03-01T07:38:00.300Z,1.07
2019-03-01T07:44:27.894Z,1.10
2019-03-01T07:51:14.163Z,1.13
2019-03-01T07:57:36.800Z,1.30
2019-03-01T08:04:14.658Z,1.40
2019-03-01T08:10:49.806Z,1.30
2019-03-01T08:17:15.234Z,1.50
2019-03-01T08:23:41.446Z,1.20
2019-03-01T08:30:10.273Z,1.60
2019-03-01T08:36:38.674Z,1.40
2019-03-01T08:43:12.013Z,1.30
2019-03-01T08:49:35.833Z,1.20
2019-03-01T08:55:52.123Z,1.37
2019-03-01T09:02:19.055Z,1.50
2019-03-01T09:08:58.838Z,1.53
2019-03-01T09:15:26.182Z,1.33
2019-03-01T09:21:51.756Z,1.60
2019-03-01T09:28:22.524Z,1.97
2019-03-01T09:34:24.203Z,3.40
2019-03-01T09:40:50.056Z,3.00
2019-03-01T09:47:18.769Z,4.13
2019-03-01T09:57:41.281Z,5.40
2019-03-01T10:04:17.873Z,5.60
2019-03-01T10:10:44.038Z,6.47
2019-03-01T10:17:07.833Z,5.77
2019-03-01T10:23:33.660Z,7.50
2019-03-01T10:30:20.524Z,7.50
2019-03-01T10:36:49.534Z,6.97
2019-03-01T10:43:17.138Z,7.90
2019-03-01T10:49:58.141Z,6.73
2019-03-01T10:59:47.987Z,8.13
2019-03-01T11:06:11.779Z,6.07
2019-03-01T11:12:45.819Z,4.30
2019-03-01T11:19:17.761Z,4.40
2019-03-01T11:25:56.359Z,4.50
2019-03-01T11:32:22.539Z,6.10
2019-03-01T11:38:48.357Z,6.60
2019-03-01T11:45:29.885Z,7.90
2019-03-01T11:51:56.966Z,11.10
2019-03-01T12:01:58.112Z,12.00
2019-03-01T12:08:25.764Z,13.90
2019-03-01T12:14:32.352Z,13.53
2019-03-01T12:21:15.413Z,15.10
2019-03-01T12:27:44.433Z,15.50
2019-03-01T12:34:10.250Z,18.63
2019-03-01T12:40:47.175Z,19.40
2019-03-01T12:47:16.828Z,19.00
2019-03-01T12:53:40.629Z,25.03
2019-03-01T13:03:09.233Z,25.73
2019-03-01T13:09:37.067Z,22.67
2019-03-01T13:15:37.874Z,25.43
2019-03-01T13:22:08.743Z,24.50
2019-03-01T13:28:33.317Z,21.13
2019-03-01T13:34:59.169Z,19.93
2019-03-01T13:41:38.127Z,18.33
2019-03-01T13:48:03.297Z,15.70
2019-03-01T13:54:28.591Z,15.57
2019-03-01T14:04:45.058Z,14.50
2019-03-01T14:11:23.536Z,13.73
2019-03-01T14:17:16.267Z,12.80
2019-03-01T14:23:42.126Z,10.13
2019-03-01T14:30:08.786Z,10.73
2019-03-01T14:36:49.789Z,9.30
2019-03-01T14:43:20.298Z,9.60
2019-03-01T14:49:45.589Z,9.40
2019-03-01T14:56:39.707Z,7.83
2019-03-01T15:06:29.540Z,7.90
2019-03-01T15:13:09.314Z,10.90
2019-03-01T15:19:37.534Z,8.97
2019-03-01T15:26:05.371Z,9.10
2019-03-01T15:32:44.324Z,9.87
2019-03-01T15:39:12.166Z,11.07
2019-03-01T15:45:43.033Z,10.87
2019-03-01T15:52:13.865Z,10.70
2019-03-01T15:58:55.382Z,10.57
2019-03-01T16:09:11.780Z,12.20
2019-03-01T16:15:38.920Z,10.80
2019-03-01T16:22:10.696Z,10.23
2019-03-01T16:28:47.623Z,10.60
2019-03-01T16:35:16.613Z,8.97
2019-03-01T16:41:42.783Z,10.80
2019-03-01T16:48:10.134Z,9.47
2019-03-01T16:54:54.761Z,10.70
2019-03-01T17:01:26.028Z,11.70
2019-03-01T17:11:44.601Z,11.23
2019-03-01T17:17:38.495Z,11.57
2019-03-01T17:24:18.269Z,10.43
2019-03-01T17:30:46.698Z,12.60
2019-03-01T17:37:14.064Z,11.40
2019-03-01T17:43:44.008Z,16.83
2019-03-01T17:50:31.177Z,11.80
2019-03-01T17:57:01.516Z,11.27
2019-03-01T18:03:26.848Z,10.53
2019-03-01T18:10:05.519Z,10.00
2019-03-01T18:15:54.897Z,9.87
2019-03-01T18:22:26.601Z,10.77
2019-03-01T18:29:00.908Z,10.17
2019-03-01T18:35:23.832Z,10.10
2019-03-01T18:41:51.679Z,9.40
2019-03-01T18:48:17.264Z,7.70
2019-03-01T18:54:43.135Z,10.40
2019-03-01T19:01:16.204Z,7.60
2019-03-01T19:07:47.074Z,7.63
2019-03-01T19:17:50.855Z,7.30
2019-03-01T19:24:33.038Z,5.10
2019-03-01T19:31:11.638Z,6.23
2019-03-01T19:37:50.935Z,6.63
2019-03-01T19:44:25.671Z,6.10
2019-03-01T19:50:58.427Z,6.70
2019-03-01T19:57:26.167Z,7.10
2019-03-01T20:00:28.035Z,7.13
2019-03-01T20:07:07.329Z,8.20
2019-03-01T20:13:36.177Z,7.93
2019-03-01T20:20:04.023Z,23.73
2019-03-01T20:26:28.641Z,9.60
2019-03-01T20:32:58.586Z,10.03
2019-03-01T20:38:48.791Z,10.50
2019-03-01T20:45:25.834Z,9.83
2019-03-01T20:51:49.514Z,10.57
2019-03-01T20:58:19.748Z,11.03
2019-03-01T21:08:33.452Z,10.43
2019-03-01T21:15:03.063Z,11.40
2019-03-01T21:21:28.912Z,11.27
2019-03-01T21:28:10.253Z,10.27
2019-03-01T21:34:47.162Z,10.50
2019-03-01T21:41:33.431Z,10.27
2019-03-01T21:48:12.375Z,8.67
2019-03-01T21:54:40.212Z,9.20
2019-03-01T22:01:06.022Z,9.70
2019-03-01T22:07:01.831Z,10.93
2019-03-01T22:13:27.397Z,11.33
2019-03-01T22:19:57.943Z,10.90
2019-03-01T22:26:24.066Z,10.70
2019-03-01T22:33:00.708Z,8.90
2019-03-01T22:38:55.502Z,9.97
2019-03-01T22:45:28.237Z,8.90
2019-03-01T22:51:55.234Z,9.70
2019-03-01T22:58:24.084Z,10.77
2019-03-01T23:04:51.520Z,10.70
2019-03-01T23:14:53.641Z,10.50
2019-03-01T23:21:19.497Z,11.07
2019-03-01T23:27:43.296Z,8.90
2019-03-01T23:34:10.322Z,11.47
2019-03-01T23:40:00.997Z,10.87
2019-03-01T23:46:31.677Z,9.70
2019-03-01T23:52:58.772Z,9.30
2019-03-01T23:59:35.426Z,8.90
